createdAt,value
2018-05-26T00:00:37.842Z,15.43
2018-05-26T00:03:09.012Z,15.27
2018-05-26T00:05:40.229Z,15.33
2018-05-26T00:08:11.421Z,15.39
2018-05-26T00:10:42.490Z,15.45
2018-05-26T00:13:13.688Z,15.46
2018-05-26T00:15:44.827Z,15.36
2018-05-26T00:18:15.994Z,15.32
2018-05-26T00:20:47.216Z,15.00
2018-05-26T00:23:18.339Z,14.73
2018-05-26T00:25:49.561Z,14.63
2018-05-26T00:28:20.802Z,14.53
2018-05-26T00:30:51.903Z,14.96
2018-05-26T00:33:23.051Z,15.13
2018-05-26T00:35:54.235Z,14.84
2018-05-26T00:38:25.354Z,15.07
2018-05-26T00:40:56.556Z,15.12
2018-05-26T00:43:27.817Z,15.14
2018-05-26T00:45:58.967Z,15.10
2018-05-26T00:48:30.258Z,15.08
2018-05-26T00:51:01.488Z,15.09
2018-05-26T00:53:32.779Z,15.07
2018-05-26T00:56:04.285Z,14.97
2018-05-26T00:58:35.503Z,15.06
2018-05-26T01:01:06.725Z,14.21
2018-05-26T01:03:38.012Z,13.70
2018-05-26T01:06:09.085Z,14.20
2018-05-26T01:08:40.837Z,14.64
2018-05-26T01:11:11.994Z,14.70
2018-05-26T01:13:43.115Z,14.80
2018-05-26T01:16:14.257Z,14.83
2018-05-26T01:18:45.317Z,14.75
2018-05-26T01:21:16.452Z,14.60
2018-05-26T01:23:47.581Z,14.32
2018-05-26T01:26:18.838Z,14.55
2018-05-26T01:28:49.963Z,14.70
2018-05-26T01:31:21.097Z,14.65
2018-05-26T01:33:52.270Z,14.04
2018-05-26T01:36:23.416Z,14.38
2018-05-26T01:38:54.602Z,14.57
2018-05-26T01:41:25.986Z,14.59
2018-05-26T01:43:57.023Z,14.63
2018-05-26T01:46:28.127Z,14.61
2018-05-26T01:48:59.286Z,14.56
2018-05-26T01:51:30.439Z,14.44
2018-05-26T01:54:01.632Z,14.48
2018-05-26T01:56:32.764Z,14.26
2018-05-26T01:59:16.517Z,14.40
2018-05-26T02:01:47.899Z,14.45
2018-05-26T02:04:19.038Z,14.46
2018-05-26T02:06:50.061Z,14.46
2018-05-26T02:09:21.525Z,14.44
2018-05-26T02:11:52.564Z,14.43
2018-05-26T02:14:23.681Z,14.29
2018-05-26T02:16:54.809Z,14.00
2018-05-26T02:19:25.970Z,13.99
2018-05-26T02:21:57.033Z,14.10
2018-05-26T02:24:28.109Z,13.62
2018-05-26T02:26:59.161Z,13.72
2018-05-26T02:29:30.296Z,13.75
2018-05-26T02:32:01.495Z,13.60
2018-05-26T02:34:32.661Z,13.32
2018-05-26T02:37:03.826Z,12.91
2018-05-26T02:39:35.038Z,13.23
2018-05-26T02:42:06.315Z,13.33
2018-05-26T02:44:37.429Z,12.98
2018-05-26T02:47:08.577Z,13.33
2018-05-26T02:49:40.356Z,13.57
2018-05-26T02:52:11.470Z,13.89
2018-05-26T02:54:42.753Z,13.98
2018-05-26T02:57:13.838Z,13.84
2018-05-26T02:59:45.182Z,13.92
2018-05-26T03:02:16.216Z,13.91
2018-05-26T03:04:52.455Z,13.98
2018-05-26T03:07:28.426Z,13.97
2018-05-26T03:10:05.095Z,13.63
2018-05-26T03:12:41.088Z,13.48
2018-05-26T03:15:11.388Z,13.62
2018-05-26T03:17:42.694Z,13.77
2018-05-26T03:20:13.850Z,13.63
2018-05-26T03:22:45.083Z,13.50
2018-05-26T03:25:16.331Z,13.54
2018-05-26T03:27:47.369Z,13.19
2018-05-26T03:30:18.582Z,13.17
2018-05-26T03:32:49.783Z,13.57
2018-05-26T03:35:21.058Z,12.91
2018-05-26T03:37:52.116Z,13.55
2018-05-26T03:40:23.349Z,13.69
2018-05-26T03:42:54.382Z,13.58
2018-05-26T03:45:25.501Z,13.63
2018-05-26T03:47:56.640Z,13.16
2018-05-26T03:50:27.754Z,12.38
2018-05-26T03:52:59.131Z,12.14
2018-05-26T03:59:47.017Z,12.14
2018-05-26T04:02:18.266Z,13.05
2018-05-26T04:04:49.345Z,13.23
2018-05-26T04:07:20.331Z,13.37
2018-05-26T04:09:51.462Z,13.23
2018-05-26T04:12:22.558Z,13.28
2018-05-26T04:14:53.648Z,13.29
2018-05-26T04:17:24.647Z,13.52
2018-05-26T04:19:55.744Z,13.47
2018-05-26T04:22:26.806Z,13.49
2018-05-26T04:24:58.101Z,13.44
2018-05-26T04:27:29.122Z,12.65
2018-05-26T04:30:00.501Z,12.56
2018-05-26T04:32:31.770Z,13.18
2018-05-26T04:35:02.973Z,13.46
2018-05-26T04:37:34.206Z,13.44
2018-05-26T04:40:05.293Z,13.56
2018-05-26T04:42:36.299Z,12.84
2018-05-26T04:45:07.366Z,13.09
2018-05-26T04:47:38.639Z,13.51
2018-05-26T04:50:09.693Z,13.00
2018-05-26T04:52:40.776Z,12.62
2018-05-26T04:55:11.856Z,13.10
2018-05-26T04:57:42.985Z,12.92
2018-05-26T05:00:14.068Z,13.34
2018-05-26T05:02:45.313Z,13.58
2018-05-26T05:05:16.350Z,13.83
2018-05-26T05:07:47.472Z,13.70
2018-05-26T05:10:18.648Z,13.50
2018-05-26T05:12:49.655Z,13.93
2018-05-26T05:15:20.760Z,13.97
2018-05-26T05:17:51.853Z,14.13
2018-05-26T05:20:23.122Z,14.29
2018-05-26T05:22:54.211Z,14.37
2018-05-26T05:25:25.400Z,14.52
2018-05-26T05:27:56.633Z,14.21
2018-05-26T05:30:27.979Z,14.30
2018-05-26T05:32:58.947Z,14.36
2018-05-26T05:35:30.448Z,14.46
2018-05-26T05:38:01.581Z,14.56
2018-05-26T05:40:33.257Z,14.68
2018-05-26T05:43:04.484Z,14.86
2018-05-26T05:45:35.526Z,14.99
2018-05-26T05:48:06.707Z,15.00
2018-05-26T05:50:37.786Z,15.08
2018-05-26T05:53:09.057Z,15.06
2018-05-26T05:55:41.672Z,15.18
2018-05-26T05:58:12.819Z,15.41
2018-05-26T06:00:44.053Z,15.60
2018-05-26T06:03:15.263Z,15.65
2018-05-26T06:05:46.398Z,15.87
2018-05-26T06:08:17.492Z,15.78
2018-05-26T06:10:48.525Z,15.91
2018-05-26T06:13:19.529Z,16.18
2018-05-26T06:15:50.574Z,15.94
2018-05-26T06:18:21.617Z,16.33
2018-05-26T06:20:53.925Z,16.68
2018-05-26T06:23:24.990Z,16.80
2018-05-26T06:25:56.744Z,16.99
2018-05-26T06:28:28.072Z,17.12
2018-05-26T06:30:59.513Z,17.20
2018-05-26T06:33:30.620Z,17.28
2018-05-26T06:36:01.903Z,17.40
2018-05-26T06:38:33.242Z,17.55
2018-05-26T06:41:04.390Z,17.65
2018-05-26T06:43:35.758Z,17.77
2018-05-26T06:46:06.735Z,17.82
2018-05-26T06:48:38.677Z,17.93
2018-05-26T06:51:09.962Z,18.26
2018-05-26T06:53:41.312Z,18.20
2018-05-26T06:56:12.863Z,18.21
2018-05-26T06:58:46.298Z,18.37
2018-05-26T07:01:17.938Z,18.54
2018-05-26T07:03:49.345Z,18.46
2018-05-26T07:06:20.652Z,18.73
2018-05-26T07:08:52.871Z,18.82
2018-05-26T07:11:24.323Z,18.96
2018-05-26T07:13:55.536Z,18.95
2018-05-26T07:16:29.038Z,18.65
2018-05-26T07:19:00.833Z,19.01
2018-05-26T07:21:32.043Z,19.23
2018-05-26T07:24:03.175Z,19.45
2018-05-26T07:26:34.350Z,19.55
2018-05-26T07:29:05.646Z,19.75
2018-05-26T07:31:36.866Z,19.72
2018-05-26T07:34:08.552Z,19.77
2018-05-26T07:36:40.577Z,19.85
2018-05-26T07:39:13.254Z,20.06
2018-05-26T07:41:45.031Z,20.29
2018-05-26T07:44:16.423Z,20.32
2018-05-26T07:46:47.834Z,20.43
2018-05-26T07:49:19.738Z,20.64
2018-05-26T07:51:51.055Z,20.70
2018-05-26T07:54:22.746Z,20.88
2018-05-26T07:56:54.531Z,20.92
2018-05-26T07:59:25.997Z,21.04
2018-05-26T08:01:57.506Z,21.07
2018-05-26T08:04:29.068Z,21.12
2018-05-26T08:07:00.469Z,20.89
2018-05-26T08:09:31.963Z,21.03
2018-05-26T08:12:03.535Z,20.85
2018-05-26T08:14:34.996Z,21.04
2018-05-26T08:17:06.654Z,21.25
2018-05-26T08:19:37.999Z,21.17
2018-05-26T08:22:09.612Z,21.41
2018-05-26T08:24:41.220Z,21.37
2018-05-26T08:27:12.737Z,21.25
2018-05-26T08:29:44.232Z,21.43
2018-05-26T08:32:15.752Z,21.36
2018-05-26T08:34:47.008Z,21.50
2018-05-26T08:37:18.468Z,21.75
2018-05-26T08:39:49.914Z,21.74
2018-05-26T08:42:21.226Z,21.94
2018-05-26T08:44:52.530Z,22.02
2018-05-26T08:47:23.781Z,22.18
2018-05-26T08:49:55.206Z,22.07
2018-05-26T08:52:26.521Z,22.18
2018-05-26T08:54:57.797Z,22.26
2018-05-26T08:57:29.063Z,22.53
2018-05-26T09:00:00.251Z,22.77
2018-05-26T09:02:31.627Z,22.66
2018-05-26T09:05:02.979Z,22.55
2018-05-26T09:07:34.227Z,22.38
2018-05-26T09:10:05.584Z,22.47
2018-05-26T09:12:36.862Z,22.62
2018-05-26T09:15:08.227Z,22.84
2018-05-26T09:17:39.855Z,22.84
2018-05-26T09:20:11.665Z,22.80
2018-05-26T09:22:42.981Z,22.68
2018-05-26T09:25:14.567Z,22.83
2018-05-26T09:27:45.745Z,22.99
2018-05-26T09:30:17.059Z,22.91
2018-05-26T09:32:48.273Z,22.69
2018-05-26T09:35:19.304Z,22.68
2018-05-26T09:37:50.635Z,22.96
2018-05-26T09:40:22.538Z,23.29
2018-05-26T09:42:53.849Z,23.34
2018-05-26T09:45:25.045Z,22.75
2018-05-26T09:47:56.482Z,23.33
2018-05-26T09:50:27.764Z,23.77
2018-05-26T09:52:58.877Z,23.81
2018-05-26T09:55:30.312Z,23.68
2018-05-26T09:58:01.930Z,23.84
2018-05-26T10:00:33.341Z,23.63
2018-05-26T10:03:04.782Z,23.93
2018-05-26T10:05:35.923Z,23.73
2018-05-26T10:08:07.061Z,23.63
2018-05-26T10:10:38.150Z,23.66
2018-05-26T10:13:09.350Z,23.71
2018-05-26T10:15:40.547Z,23.84
2018-05-26T10:18:11.838Z,23.52
2018-05-26T10:20:43.222Z,23.19
2018-05-26T10:23:15.822Z,23.11
2018-05-26T10:25:47.283Z,23.41
2018-05-26T10:28:18.559Z,23.72
2018-05-26T10:30:49.808Z,23.66
2018-05-26T10:33:20.787Z,23.73
2018-05-26T10:35:52.062Z,23.94
2018-05-26T10:38:23.142Z,24.11
2018-05-26T10:40:54.327Z,23.65
2018-05-26T10:43:25.797Z,23.20
2018-05-26T10:46:05.670Z,23.32
2018-05-26T10:48:36.819Z,23.88
2018-05-26T10:51:08.058Z,23.84
2018-05-26T10:53:38.990Z,23.95
2018-05-26T10:56:10.706Z,24.06
2018-05-26T10:58:41.831Z,24.05
2018-05-26T11:01:13.104Z,23.94
2018-05-26T11:03:44.346Z,23.84
2018-05-26T11:06:15.364Z,23.75
2018-05-26T11:08:46.531Z,23.88
2018-05-26T11:11:17.639Z,23.87
2018-05-26T11:13:48.819Z,24.08
2018-05-26T11:16:19.869Z,24.10
2018-05-26T11:18:53.220Z,24.25
2018-05-26T11:21:26.241Z,24.41
2018-05-26T11:23:57.556Z,24.26
2018-05-26T11:26:28.887Z,24.00
2018-05-26T11:29:00.070Z,24.04
2018-05-26T11:31:32.909Z,24.32
2018-05-26T11:34:04.451Z,24.29
2018-05-26T11:36:35.598Z,23.99
2018-05-26T11:39:07.318Z,24.29
2018-05-26T11:41:38.325Z,24.28
2018-05-26T11:44:09.914Z,24.06
2018-05-26T11:46:40.963Z,23.83
2018-05-26T11:49:12.088Z,23.90
2018-05-26T11:51:43.145Z,23.83
2018-05-26T11:54:14.363Z,24.14
2018-05-26T11:56:45.564Z,24.17
2018-05-26T11:59:17.697Z,23.73
2018-05-26T12:01:48.933Z,23.87
2018-05-26T12:04:19.918Z,24.14
2018-05-26T12:06:51.066Z,24.38
2018-05-26T12:09:22.269Z,24.47
2018-05-26T12:11:53.384Z,24.49
2018-05-26T12:14:24.645Z,24.46
2018-05-26T12:16:55.740Z,24.64
2018-05-26T12:19:26.789Z,24.68
2018-05-26T12:21:58.343Z,24.82
2018-05-26T12:24:29.280Z,24.76
2018-05-26T12:27:00.476Z,24.76
2018-05-26T12:29:31.642Z,24.92
2018-05-26T12:32:03.088Z,24.79
2018-05-26T12:34:34.255Z,24.66
2018-05-26T12:37:05.455Z,24.87
2018-05-26T12:39:37.093Z,24.95
2018-05-26T12:42:08.369Z,25.10
2018-05-26T12:44:39.527Z,24.61
2018-05-26T12:47:10.585Z,24.81
2018-05-26T12:49:41.861Z,24.93
2018-05-26T12:52:13.049Z,24.88
2018-05-26T12:54:44.191Z,25.00
2018-05-26T12:57:16.138Z,24.87
2018-05-26T12:59:47.428Z,24.95
2018-05-26T13:02:18.573Z,24.55
2018-05-26T13:04:49.685Z,24.67
2018-05-26T13:07:20.774Z,24.84
2018-05-26T13:09:52.107Z,24.87
2018-05-26T13:12:23.218Z,24.94
2018-05-26T13:14:55.033Z,24.64
2018-05-26T13:17:26.207Z,24.55
2018-05-26T13:19:57.280Z,24.42
2018-05-26T13:22:28.394Z,24.31
2018-05-26T13:24:59.395Z,24.50
2018-05-26T13:27:30.625Z,24.78
2018-05-26T13:30:02.307Z,25.03
2018-05-26T13:32:33.584Z,25.19
2018-05-26T13:35:05.502Z,25.18
2018-05-26T13:37:36.739Z,25.20
2018-05-26T13:40:07.813Z,24.79
2018-05-26T13:42:39.590Z,24.66
2018-05-26T13:45:11.169Z,25.05
2018-05-26T13:47:43.427Z,25.13
2018-05-26T13:50:16.164Z,24.77
2018-05-26T13:52:47.600Z,24.91
2018-05-26T13:55:20.782Z,25.25
2018-05-26T13:57:51.952Z,25.11
2018-05-26T14:00:24.214Z,25.18
2018-05-26T14:02:55.277Z,25.03
2018-05-26T14:05:26.455Z,25.14
2018-05-26T14:07:57.553Z,25.09
2018-05-26T14:10:28.663Z,25.16
2018-05-26T14:13:00.147Z,24.80
2018-05-26T14:15:31.246Z,24.89
2018-05-26T14:18:02.586Z,24.72
2018-05-26T14:20:33.742Z,24.63
2018-05-26T14:23:05.308Z,24.36
2018-05-26T14:25:36.337Z,24.65
2018-05-26T14:28:07.514Z,24.71
2018-05-26T14:30:38.518Z,24.51
2018-05-26T14:33:09.709Z,24.62
2018-05-26T14:35:40.689Z,24.72
2018-05-26T14:38:11.962Z,24.75
2018-05-26T14:40:43.233Z,24.93
2018-05-26T14:43:14.687Z,25.10
2018-05-26T14:45:45.802Z,24.99
2018-05-26T14:48:17.134Z,24.86
2018-05-26T14:50:48.370Z,24.79
2018-05-26T14:53:19.570Z,24.69
2018-05-26T14:55:50.846Z,24.69
2018-05-26T14:58:22.336Z,24.57
2018-05-26T15:00:53.517Z,24.61
2018-05-26T15:03:25.192Z,24.47
2018-05-26T15:05:58.428Z,24.37
2018-05-26T15:08:32.722Z,24.51
2018-05-26T15:11:05.741Z,24.68
2018-05-26T15:13:36.735Z,24.59
2018-05-26T15:16:08.125Z,24.68
2018-05-26T15:18:40.080Z,24.86
2018-05-26T15:21:13.886Z,24.86
2018-05-26T15:23:46.267Z,24.81
2018-05-26T15:26:17.557Z,24.79
2018-05-26T15:28:48.509Z,24.70
2018-05-26T15:31:19.647Z,24.60
2018-05-26T15:33:50.673Z,24.78
2018-05-26T15:36:21.985Z,24.89
2018-05-26T15:38:52.986Z,24.85
2018-05-26T15:41:24.298Z,24.76
2018-05-26T15:43:55.614Z,24.51
2018-05-26T15:46:27.024Z,24.34
2018-05-26T15:48:58.303Z,24.51
2018-05-26T15:51:35.373Z,24.53
2018-05-26T15:54:09.215Z,24.39
2018-05-26T15:56:40.349Z,24.04
2018-05-26T15:59:11.829Z,24.06
2018-05-26T16:01:44.275Z,24.03
2018-05-26T16:04:16.366Z,24.07
2018-05-26T16:06:48.667Z,24.14
2018-05-26T16:09:20.166Z,23.93
2018-05-26T16:11:51.137Z,23.78
2018-05-26T16:14:22.309Z,23.90
2018-05-26T16:16:53.710Z,23.87
2018-05-26T16:19:26.365Z,23.67
2018-05-26T16:21:57.950Z,23.59
2018-05-26T16:24:30.112Z,23.65
2018-05-26T16:27:02.233Z,23.50
2018-05-26T16:29:33.836Z,23.61
2018-05-26T16:32:05.159Z,23.77
2018-05-26T16:34:36.713Z,23.98
2018-05-26T16:37:08.565Z,23.91
2018-05-26T16:39:40.111Z,23.68
2018-05-26T16:42:11.341Z,23.88
2018-05-26T16:44:42.921Z,24.04
2018-05-26T16:47:14.835Z,24.15
2018-05-26T16:49:46.177Z,24.23
2018-05-26T16:52:18.229Z,24.19
2018-05-26T16:54:49.765Z,24.17
2018-05-26T16:57:22.018Z,23.97
2018-05-26T16:59:53.381Z,24.13
2018-05-26T17:02:25.479Z,24.32
2018-05-26T17:04:56.905Z,24.32
2018-05-26T17:07:28.225Z,24.48
2018-05-26T17:09:59.589Z,24.26
2018-05-26T17:12:31.238Z,23.91
2018-05-26T17:15:03.091Z,23.77
2018-05-26T17:17:34.283Z,23.62
2018-05-26T17:20:06.165Z,23.57
2018-05-26T17:22:37.824Z,23.62
2018-05-26T17:25:08.949Z,23.81
2018-05-26T17:27:40.515Z,23.95
2018-05-26T17:30:12.436Z,23.48
2018-05-26T17:32:43.894Z,23.67
2018-05-26T17:35:15.446Z,23.66
2018-05-26T17:37:47.702Z,23.27
2018-05-26T17:40:19.776Z,23.04
2018-05-26T17:42:51.279Z,23.00
2018-05-26T17:45:23.171Z,22.93
2018-05-26T17:47:54.783Z,22.75
2018-05-26T17:50:26.449Z,22.77
2018-05-26T17:52:58.474Z,23.01
2018-05-26T17:55:30.769Z,23.11
2018-05-26T17:58:02.363Z,23.07
2018-05-26T18:00:35.067Z,23.00
2018-05-26T18:03:07.632Z,22.90
2018-05-26T18:05:38.837Z,22.92
2018-05-26T18:08:10.059Z,22.99
2018-05-26T18:10:42.297Z,22.87
2018-05-26T18:13:13.421Z,22.66
2018-05-26T18:15:44.798Z,22.97
2018-05-26T18:18:16.005Z,22.85
2018-05-26T18:20:47.418Z,22.84
2018-05-26T18:23:19.774Z,22.80
2018-05-26T18:25:52.818Z,22.84
2018-05-26T18:28:26.504Z,22.74
2018-05-26T18:30:58.777Z,22.63
2018-05-26T18:33:30.061Z,22.80
2018-05-26T18:36:01.163Z,22.94
2018-05-26T18:38:32.300Z,22.75
2018-05-26T18:41:03.648Z,22.91
2018-05-26T18:43:35.051Z,22.61
2018-05-26T18:46:06.483Z,22.70
2018-05-26T18:48:38.079Z,22.24
2018-05-26T18:51:09.837Z,22.31
2018-05-26T18:53:41.112Z,22.30
2018-05-26T18:56:12.812Z,22.11
2018-05-26T18:58:44.143Z,22.43
2018-05-26T19:01:16.336Z,22.31
2018-05-26T19:03:49.006Z,22.35
2018-05-26T19:06:20.354Z,22.40
2018-05-26T19:08:52.034Z,22.25
2018-05-26T19:11:23.438Z,22.39
2018-05-26T19:13:55.103Z,22.40
2018-05-26T19:16:26.259Z,21.98
2018-05-26T19:18:57.525Z,22.11
2018-05-26T19:21:29.047Z,22.18
2018-05-26T19:24:00.333Z,22.10
2018-05-26T19:26:31.858Z,22.04
2018-05-26T19:29:03.010Z,21.97
2018-05-26T19:31:34.660Z,22.03
2018-05-26T19:34:05.719Z,22.15
2018-05-26T19:36:36.837Z,22.01
2018-05-26T19:39:07.964Z,22.00
2018-05-26T19:41:39.181Z,21.71
2018-05-26T19:44:10.458Z,21.88
2018-05-26T19:46:41.504Z,21.57
2018-05-26T19:49:12.745Z,21.76
2018-05-26T19:51:43.956Z,21.48
2018-05-26T19:54:15.584Z,21.60
2018-05-26T19:56:47.290Z,21.54
2018-05-26T19:59:18.405Z,21.55
2018-05-26T20:01:50.032Z,21.45
2018-05-26T20:04:21.277Z,21.40
2018-05-26T20:06:52.788Z,21.20
2018-05-26T20:09:23.945Z,21.34
2018-05-26T20:11:55.218Z,20.90
2018-05-26T20:14:26.804Z,20.29
2018-05-26T20:16:58.499Z,19.18
2018-05-26T20:19:29.738Z,19.41
2018-05-26T20:22:01.060Z,19.60
2018-05-26T20:24:33.089Z,19.65
2018-05-26T20:27:04.620Z,19.30
2018-05-26T20:29:36.032Z,19.06
2018-05-26T20:32:07.505Z,19.46
2018-05-26T20:34:38.993Z,19.24
2018-05-26T20:37:10.387Z,18.77
2018-05-26T20:39:41.568Z,18.78
2018-05-26T20:42:12.924Z,19.79
2018-05-26T20:44:44.030Z,20.31
2018-05-26T20:47:15.204Z,20.44
2018-05-26T20:49:46.338Z,20.46
2018-05-26T20:52:17.606Z,20.61
2018-05-26T20:54:49.021Z,20.61
2018-05-26T20:57:20.216Z,20.06
2018-05-26T20:59:56.284Z,19.73
2018-05-26T21:02:29.262Z,20.20
2018-05-26T21:05:00.609Z,19.52
2018-05-26T21:07:31.890Z,19.27
2018-05-26T21:10:03.183Z,19.94
2018-05-26T21:12:34.424Z,20.03
2018-05-26T21:15:05.537Z,19.72
2018-05-26T21:17:37.150Z,19.81
2018-05-26T21:20:08.341Z,19.58
2018-05-26T21:22:39.591Z,18.84
2018-05-26T21:25:10.846Z,19.06
2018-05-26T21:27:41.998Z,19.04
2018-05-26T21:30:13.301Z,18.69
2018-05-26T21:32:44.577Z,18.80
2018-05-26T21:35:15.729Z,19.61
2018-05-26T21:37:46.771Z,19.98
2018-05-26T21:40:17.900Z,19.56
2018-05-26T21:42:49.154Z,18.92
2018-05-26T21:45:20.368Z,19.12
2018-05-26T21:47:52.823Z,18.82
2018-05-26T21:50:23.995Z,18.28
2018-05-26T21:52:55.307Z,18.83
2018-05-26T21:55:26.410Z,19.23
2018-05-26T21:57:57.760Z,19.64
2018-05-26T22:00:29.957Z,19.82
2018-05-26T22:03:01.250Z,19.49
2018-05-26T22:05:32.694Z,19.78
2018-05-26T22:08:03.886Z,19.81
2018-05-26T22:10:35.054Z,19.80
2018-05-26T22:13:06.382Z,19.79
2018-05-26T22:15:37.693Z,19.81
2018-05-26T22:18:09.002Z,19.87
2018-05-26T22:20:40.322Z,19.80
2018-05-26T22:23:11.588Z,19.76
2018-05-26T22:25:43.342Z,19.61
2018-05-26T22:28:15.030Z,18.25
2018-05-26T22:30:46.278Z,17.96
2018-05-26T22:33:17.388Z,18.59
2018-05-26T22:35:48.570Z,19.32
2018-05-26T22:38:19.858Z,19.49
2018-05-26T22:40:51.469Z,19.60
2018-05-26T22:43:22.643Z,19.12
2018-05-26T22:45:53.839Z,18.74
2018-05-26T22:48:25.072Z,18.51
2018-05-26T22:50:56.362Z,18.68
2018-05-26T22:53:27.532Z,19.16
2018-05-26T22:55:58.686Z,19.46
2018-05-26T22:58:29.928Z,19.52
2018-05-26T23:01:01.248Z,18.76
2018-05-26T23:03:32.430Z,18.54
2018-05-26T23:06:03.735Z,18.70
2018-05-26T23:08:34.981Z,19.23
2018-05-26T23:11:06.309Z,19.33
2018-05-26T23:13:37.506Z,19.19
2018-05-26T23:16:08.603Z,19.34
2018-05-26T23:18:39.881Z,19.39
2018-05-26T23:21:10.969Z,19.51
2018-05-26T23:23:42.221Z,19.51
2018-05-26T23:26:14.106Z,19.40
2018-05-26T23:28:45.275Z,19.39
2018-05-26T23:31:16.531Z,19.39
2018-05-26T23:33:47.814Z,19.28
2018-05-26T23:36:19.029Z,19.30
2018-05-26T23:38:50.125Z,19.34
2018-05-26T23:41:21.469Z,19.31
2018-05-26T23:43:52.557Z,19.18
2018-05-26T23:46:23.807Z,19.07
2018-05-26T23:48:54.945Z,18.71
2018-05-26T23:51:26.438Z,18.69
2018-05-26T23:53:57.735Z,18.79
2018-05-26T23:56:28.905Z,18.97
2018-05-26T23:59:00.177Z,19.01
